sensor_id;sensor_type;location;lat;lon;timestamp;P1;durP1;ratioP1;P2;durP2;ratioP2
38715;SDS011;24833;49.324;8.694;2024-02-21T00:01:31;4.30;;;2.40;;
38715;SDS011;24833;49.324;8.694;2024-02-21T00:03:58;4.07;;;2.13;;
38715;SDS011;24833;49.324;8.694;2024-02-21T00:06:25;3.72;;;2.42;;
38715;SDS011;24833;49.324;8.694;2024-02-21T00:08:52;3.83;;;2.47;;
38715;SDS011;24833;49.324;8.694;2024-02-21T00:11:20;2.83;;;2.20;;
38715;SDS011;24833;49.324;8.694;2024-02-21T00:13:48;3.60;;;2.45;;
38715;SDS011;24833;49.324;8.694;2024-02-21T00:16:15;5.38;;;2.30;;
38715;SDS011;24833;49.324;8.694;2024-02-21T00:18:43;3.83;;;2.25;;
38715;SDS011;24833;49.324;8.694;2024-02-21T00:21:10;3.97;;;2.67;;
38715;SDS011;24833;49.324;8.694;2024-02-21T00:23:44;3.78;;;2.38;;
38715;SDS011;24833;49.324;8.694;2024-02-21T00:26:12;3.28;;;2.15;;
38715;SDS011;24833;49.324;8.694;2024-02-21T00:28:40;3.40;;;2.28;;
38715;SDS011;24833;49.324;8.694;2024-02-21T00:31:07;4.35;;;2.45;;
38715;SDS011;24833;49.324;8.694;2024-02-21T00:33:34;2.15;;;1.85;;
38715;SDS011;24833;49.324;8.694;2024-02-21T00:36:02;4.78;;;2.30;;
38715;SDS011;24833;49.324;8.694;2024-02-21T00:38:29;2.75;;;2.22;;
38715;SDS011;24833;49.324;8.694;2024-02-21T00:40:56;3.58;;;2.35;;
38715;SDS011;24833;49.324;8.694;2024-02-21T00:43:23;5.20;;;2.25;;
38715;SDS011;24833;49.324;8.694;2024-02-21T00:45:51;3.70;;;1.88;;
38715;SDS011;24833;49.324;8.694;2024-02-21T00:48:18;4.90;;;2.45;;
38715;SDS011;24833;49.324;8.694;2024-02-21T00:50:45;3.70;;;2.47;;
38715;SDS011;24833;49.324;8.694;2024-02-21T00:53:12;3.97;;;2.20;;
38715;SDS011;24833;49.324;8.694;2024-02-21T00:55:39;4.93;;;2.60;;
38715;SDS011;24833;49.324;8.694;2024-02-21T00:58:06;4.05;;;2.30;;
38715;SDS011;24833;49.324;8.694;2024-02-21T01:00:33;4.63;;;2.55;;
38715;SDS011;24833;49.324;8.694;2024-02-21T01:03:00;4.60;;;2.42;;
38715;SDS011;24833;49.324;8.694;2024-02-21T01:05:28;4.15;;;2.15;;
38715;SDS011;24833;49.324;8.694;2024-02-21T01:07:55;3.72;;;2.22;;
38715;SDS011;24833;49.324;8.694;2024-02-21T01:10:22;3.72;;;2.00;;
38715;SDS011;24833;49.324;8.694;2024-02-21T01:12:49;4.10;;;2.13;;
38715;SDS011;24833;49.324;8.694;2024-02-21T01:15:16;2.63;;;1.60;;
38715;SDS011;24833;49.324;8.694;2024-02-21T01:17:43;3.35;;;1.80;;
38715;SDS011;24833;49.324;8.694;2024-02-21T01:20:11;2.03;;;1.67;;
38715;SDS011;24833;49.324;8.694;2024-02-21T01:22:38;2.17;;;1.90;;
38715;SDS011;24833;49.324;8.694;2024-02-21T01:25:05;3.88;;;2.30;;
38715;SDS011;24833;49.324;8.694;2024-02-21T01:27:33;4.70;;;2.83;;
38715;SDS011;24833;49.324;8.694;2024-02-21T01:30:00;4.43;;;2.30;;
38715;SDS011;24833;49.324;8.694;2024-02-21T01:32:28;3.88;;;1.90;;
38715;SDS011;24833;49.324;8.694;2024-02-21T01:34:55;4.30;;;2.00;;
38715;SDS011;24833;49.324;8.694;2024-02-21T01:37:22;3.03;;;2.00;;
38715;SDS011;24833;49.324;8.694;2024-02-21T01:39:49;3.83;;;2.20;;
38715;SDS011;24833;49.324;8.694;2024-02-21T01:42:16;2.15;;;1.85;;
38715;SDS011;24833;49.324;8.694;2024-02-21T01:44:43;2.92;;;1.90;;
38715;SDS011;24833;49.324;8.694;2024-02-21T01:47:10;2.60;;;1.90;;
38715;SDS011;24833;49.324;8.694;2024-02-21T01:49:40;4.30;;;2.15;;
38715;SDS011;24833;49.324;8.694;2024-02-21T01:52:08;3.30;;;2.03;;
38715;SDS011;24833;49.324;8.694;2024-02-21T01:54:36;2.05;;;1.65;;
38715;SDS011;24833;49.324;8.694;2024-02-21T01:57:04;3.42;;;2.00;;
38715;SDS011;24833;49.324;8.694;2024-02-21T01:59:32;3.70;;;2.10;;
38715;SDS011;24833;49.324;8.694;2024-02-21T02:01:59;3.15;;;1.98;;
38715;SDS011;24833;49.324;8.694;2024-02-21T02:04:27;3.20;;;1.80;;
38715;SDS011;24833;49.324;8.694;2024-02-21T02:06:54;2.05;;;1.77;;
38715;SDS011;24833;49.324;8.694;2024-02-21T02:09:22;2.50;;;1.83;;
38715;SDS011;24833;49.324;8.694;2024-02-21T02:11:49;3.97;;;2.20;;
38715;SDS011;24833;49.324;8.694;2024-02-21T02:14:17;5.13;;;1.95;;
38715;SDS011;24833;49.324;8.694;2024-02-21T02:16:46;4.90;;;1.98;;
38715;SDS011;24833;49.324;8.694;2024-02-21T02:19:16;3.15;;;1.90;;
38715;SDS011;24833;49.324;8.694;2024-02-21T02:21:46;4.65;;;2.20;;
38715;SDS011;24833;49.324;8.694;2024-02-21T02:24:22;3.83;;;2.17;;
38715;SDS011;24833;49.324;8.694;2024-02-21T02:26:53;3.80;;;1.85;;
38715;SDS011;24833;49.324;8.694;2024-02-21T02:29:20;4.07;;;2.20;;
38715;SDS011;24833;49.324;8.694;2024-02-21T02:31:48;2.92;;;2.00;;
38715;SDS011;24833;49.324;8.694;2024-02-21T02:34:16;3.28;;;1.92;;
38715;SDS011;24833;49.324;8.694;2024-02-21T02:36:43;4.25;;;2.22;;
38715;SDS011;24833;49.324;8.694;2024-02-21T02:39:10;3.08;;;1.95;;
38715;SDS011;24833;49.324;8.694;2024-02-21T02:41:37;3.75;;;1.80;;
38715;SDS011;24833;49.324;8.694;2024-02-21T02:44:04;3.50;;;1.98;;
38715;SDS011;24833;49.324;8.694;2024-02-21T02:46:31;2.83;;;1.70;;
38715;SDS011;24833;49.324;8.694;2024-02-21T02:48:58;2.75;;;1.80;;
38715;SDS011;24833;49.324;8.694;2024-02-21T02:51:25;3.33;;;1.85;;
38715;SDS011;24833;49.324;8.694;2024-02-21T02:53:53;2.55;;;1.77;;
38715;SDS011;24833;49.324;8.694;2024-02-21T02:56:20;2.88;;;1.67;;
38715;SDS011;24833;49.324;8.694;2024-02-21T02:58:47;2.58;;;1.58;;
38715;SDS011;24833;49.324;8.694;2024-02-21T03:01:14;2.80;;;1.65;;
38715;SDS011;24833;49.324;8.694;2024-02-21T03:03:41;5.18;;;1.98;;
38715;SDS011;24833;49.324;8.694;2024-02-21T03:06:08;5.97;;;2.42;;
38715;SDS011;24833;49.324;8.694;2024-02-21T03:08:39;3.50;;;2.23;;
38715;SDS011;24833;49.324;8.694;2024-02-21T03:11:06;2.88;;;1.63;;
38715;SDS011;24833;49.324;8.694;2024-02-21T03:13:33;3.22;;;2.10;;
38715;SDS011;24833;49.324;8.694;2024-02-21T03:16:00;3.45;;;2.05;;
38715;SDS011;24833;49.324;8.694;2024-02-21T03:18:27;3.90;;;2.25;;
38715;SDS011;24833;49.324;8.694;2024-02-21T03:20:55;3.40;;;1.90;;
38715;SDS011;24833;49.324;8.694;2024-02-21T03:23:22;3.35;;;1.90;;
38715;SDS011;24833;49.324;8.694;2024-02-21T03:25:49;3.10;;;1.73;;
38715;SDS011;24833;49.324;8.694;2024-02-21T03:28:16;3.35;;;1.85;;
38715;SDS011;24833;49.324;8.694;2024-02-21T03:30:43;3.65;;;2.17;;
38715;SDS011;24833;49.324;8.694;2024-02-21T03:33:13;5.37;;;1.73;;
38715;SDS011;24833;49.324;8.694;2024-02-21T03:35:40;2.33;;;1.73;;
38715;SDS011;24833;49.324;8.694;2024-02-21T03:38:07;3.17;;;1.60;;
38715;SDS011;24833;49.324;8.694;2024-02-21T03:40:36;1.40;;;1.10;;
38715;SDS011;24833;49.324;8.694;2024-02-21T03:43:03;2.90;;;1.40;;
38715;SDS011;24833;49.324;8.694;2024-02-21T03:45:30;2.95;;;1.73;;
38715;SDS011;24833;49.324;8.694;2024-02-21T03:47:57;2.47;;;1.70;;
38715;SDS011;24833;49.324;8.694;2024-02-21T03:50:28;4.37;;;1.60;;
38715;SDS011;24833;49.324;8.694;2024-02-21T03:52:56;3.35;;;1.75;;
38715;SDS011;24833;49.324;8.694;2024-02-21T03:55:23;2.50;;;1.60;;
38715;SDS011;24833;49.324;8.694;2024-02-21T03:57:50;2.42;;;1.73;;
38715;SDS011;24833;49.324;8.694;2024-02-21T04:00:17;2.03;;;1.75;;
38715;SDS011;24833;49.324;8.694;2024-02-21T04:02:44;3.53;;;1.60;;
38715;SDS011;24833;49.324;8.694;2024-02-21T04:05:14;1.73;;;1.33;;
38715;SDS011;24833;49.324;8.694;2024-02-21T04:10:10;2.28;;;1.45;;
38715;SDS011;24833;49.324;8.694;2024-02-21T04:12:37;3.03;;;1.48;;
38715;SDS011;24833;49.324;8.694;2024-02-21T04:15:04;1.48;;;1.23;;
38715;SDS011;24833;49.324;8.694;2024-02-21T04:17:32;1.13;;;1.05;;
38715;SDS011;24833;49.324;8.694;2024-02-21T04:20:03;1.23;;;0.80;;
38715;SDS011;24833;49.324;8.694;2024-02-21T04:22:37;1.83;;;1.25;;
38715;SDS011;24833;49.324;8.694;2024-02-21T04:25:04;1.67;;;1.17;;
38715;SDS011;24833;49.324;8.694;2024-02-21T04:27:32;2.20;;;1.25;;
38715;SDS011;24833;49.324;8.694;2024-02-21T04:30:00;3.38;;;1.40;;
38715;SDS011;24833;49.324;8.694;2024-02-21T04:32:27;4.93;;;2.08;;
38715;SDS011;24833;49.324;8.694;2024-02-21T04:34:55;2.90;;;1.73;;
38715;SDS011;24833;49.324;8.694;2024-02-21T04:37:22;3.20;;;1.60;;
38715;SDS011;24833;49.324;8.694;2024-02-21T04:39:50;3.03;;;1.77;;
38715;SDS011;24833;49.324;8.694;2024-02-21T04:42:17;1.80;;;1.48;;
38715;SDS011;24833;49.324;8.694;2024-02-21T04:44:44;2.00;;;1.38;;
38715;SDS011;24833;49.324;8.694;2024-02-21T04:47:11;1.73;;;1.30;;
38715;SDS011;24833;49.324;8.694;2024-02-21T04:49:38;1.73;;;1.15;;
38715;SDS011;24833;49.324;8.694;2024-02-21T04:52:06;1.90;;;1.23;;
38715;SDS011;24833;49.324;8.694;2024-02-21T04:54:33;1.20;;;1.10;;
38715;SDS011;24833;49.324;8.694;2024-02-21T04:57:01;2.30;;;1.40;;
38715;SDS011;24833;49.324;8.694;2024-02-21T04:59:29;1.60;;;1.10;;
38715;SDS011;24833;49.324;8.694;2024-02-21T05:01:56;1.67;;;1.23;;
38715;SDS011;24833;49.324;8.694;2024-02-21T05:04:23;1.30;;;1.15;;
38715;SDS011;24833;49.324;8.694;2024-02-21T05:06:50;1.25;;;0.95;;
38715;SDS011;24833;49.324;8.694;2024-02-21T05:09:18;2.58;;;1.17;;
38715;SDS011;24833;49.324;8.694;2024-02-21T05:11:45;1.60;;;1.23;;
38715;SDS011;24833;49.324;8.694;2024-02-21T05:14:12;2.45;;;1.77;;
38715;SDS011;24833;49.324;8.694;2024-02-21T05:16:39;4.30;;;1.40;;
38715;SDS011;24833;49.324;8.694;2024-02-21T05:23:03;1.55;;;1.25;;
38715;SDS011;24833;49.324;8.694;2024-02-21T05:25:30;1.67;;;1.23;;
38715;SDS011;24833;49.324;8.694;2024-02-21T05:28:01;1.50;;;1.33;;
38715;SDS011;24833;49.324;8.694;2024-02-21T05:30:29;2.25;;;1.63;;
38715;SDS011;24833;49.324;8.694;2024-02-21T05:32:56;2.33;;;1.50;;
38715;SDS011;24833;49.324;8.694;2024-02-21T05:35:27;2.20;;;1.58;;
38715;SDS011;24833;49.324;8.694;2024-02-21T05:37:55;1.50;;;1.02;;
38715;SDS011;24833;49.324;8.694;2024-02-21T05:40:23;1.67;;;0.98;;
38715;SDS011;24833;49.324;8.694;2024-02-21T05:42:50;1.50;;;1.00;;
38715;SDS011;24833;49.324;8.694;2024-02-21T05:45:18;1.40;;;0.85;;
38715;SDS011;24833;49.324;8.694;2024-02-21T05:47:45;1.15;;;0.93;;
38715;SDS011;24833;49.324;8.694;2024-02-21T05:50:12;1.10;;;0.90;;
38715;SDS011;24833;49.324;8.694;2024-02-21T05:52:39;1.00;;;0.90;;
38715;SDS011;24833;49.324;8.694;2024-02-21T05:55:07;0.80;;;0.80;;
38715;SDS011;24833;49.324;8.694;2024-02-21T05:57:35;1.38;;;0.98;;
38715;SDS011;24833;49.324;8.694;2024-02-21T06:00:05;1.60;;;0.95;;
38715;SDS011;24833;49.324;8.694;2024-02-21T06:02:39;1.33;;;0.75;;
38715;SDS011;24833;49.324;8.694;2024-02-21T06:05:07;1.63;;;1.10;;
38715;SDS011;24833;49.324;8.694;2024-02-21T06:07:35;3.88;;;1.50;;
38715;SDS011;24833;49.324;8.694;2024-02-21T06:10:02;2.80;;;1.10;;
38715;SDS011;24833;49.324;8.694;2024-02-21T06:12:30;1.67;;;1.20;;
38715;SDS011;24833;49.324;8.694;2024-02-21T06:14:57;1.77;;;1.15;;
38715;SDS011;24833;49.324;8.694;2024-02-21T06:17:24;1.63;;;1.25;;
38715;SDS011;24833;49.324;8.694;2024-02-21T06:19:51;3.80;;;1.42;;
38715;SDS011;24833;49.324;8.694;2024-02-21T06:22:18;1.92;;;1.40;;
38715;SDS011;24833;49.324;8.694;2024-02-21T06:24:45;2.70;;;1.52;;
38715;SDS011;24833;49.324;8.694;2024-02-21T06:27:12;1.63;;;1.42;;
38715;SDS011;24833;49.324;8.694;2024-02-21T06:29:42;2.72;;;1.40;;
38715;SDS011;24833;49.324;8.694;2024-02-21T06:32:09;1.63;;;1.27;;
38715;SDS011;24833;49.324;8.694;2024-02-21T06:34:36;1.58;;;1.27;;
38715;SDS011;24833;49.324;8.694;2024-02-21T06:37:03;1.30;;;1.20;;
38715;SDS011;24833;49.324;8.694;2024-02-21T06:39:31;2.35;;;1.40;;
38715;SDS011;24833;49.324;8.694;2024-02-21T06:41:58;2.08;;;1.27;;
38715;SDS011;24833;49.324;8.694;2024-02-21T06:44:29;1.48;;;1.38;;
38715;SDS011;24833;49.324;8.694;2024-02-21T06:46:58;1.48;;;1.30;;
38715;SDS011;24833;49.324;8.694;2024-02-21T06:49:26;2.63;;;1.60;;
38715;SDS011;24833;49.324;8.694;2024-02-21T06:51:53;3.53;;;2.17;;
38715;SDS011;24833;49.324;8.694;2024-02-21T06:54:20;2.45;;;1.70;;
38715;SDS011;24833;49.324;8.694;2024-02-21T06:56:47;1.88;;;1.40;;
38715;SDS011;24833;49.324;8.694;2024-02-21T06:59:14;1.77;;;1.40;;
38715;SDS011;24833;49.324;8.694;2024-02-21T07:01:46;2.38;;;1.40;;
38715;SDS011;24833;49.324;8.694;2024-02-21T07:04:15;1.90;;;1.17;;
38715;SDS011;24833;49.324;8.694;2024-02-21T07:06:42;2.08;;;1.30;;
38715;SDS011;24833;49.324;8.694;2024-02-21T07:09:10;2.42;;;0.95;;
38715;SDS011;24833;49.324;8.694;2024-02-21T07:11:36;1.50;;;1.20;;
38715;SDS011;24833;49.324;8.694;2024-02-21T07:14:04;2.42;;;1.40;;
38715;SDS011;24833;49.324;8.694;2024-02-21T07:16:31;2.53;;;1.52;;
38715;SDS011;24833;49.324;8.694;2024-02-21T07:18:59;2.42;;;1.60;;
38715;SDS011;24833;49.324;8.694;2024-02-21T07:21:26;1.50;;;1.23;;
38715;SDS011;24833;49.324;8.694;2024-02-21T07:23:54;2.03;;;1.50;;
38715;SDS011;24833;49.324;8.694;2024-02-21T07:26:21;1.65;;;1.30;;
38715;SDS011;24833;49.324;8.694;2024-02-21T07:28:48;2.20;;;1.38;;
38715;SDS011;24833;49.324;8.694;2024-02-21T07:31:15;4.35;;;2.22;;
38715;SDS011;24833;49.324;8.694;2024-02-21T07:33:42;2.53;;;1.70;;
38715;SDS011;24833;49.324;8.694;2024-02-21T07:36:10;2.85;;;1.90;;
38715;SDS011;24833;49.324;8.694;2024-02-21T07:38:38;2.42;;;1.80;;
38715;SDS011;24833;49.324;8.694;2024-02-21T07:41:05;3.22;;;2.00;;
38715;SDS011;24833;49.324;8.694;2024-02-21T07:43:32;3.88;;;1.98;;
38715;SDS011;24833;49.324;8.694;2024-02-21T07:45:59;3.00;;;2.03;;
38715;SDS011;24833;49.324;8.694;2024-02-21T07:48:27;2.67;;;1.92;;
38715;SDS011;24833;49.324;8.694;2024-02-21T07:50:55;2.75;;;1.67;;
38715;SDS011;24833;49.324;8.694;2024-02-21T07:53:23;1.63;;;1.48;;
38715;SDS011;24833;49.324;8.694;2024-02-21T07:55:50;2.45;;;1.40;;
38715;SDS011;24833;49.324;8.694;2024-02-21T07:58:17;2.30;;;2.00;;
38715;SDS011;24833;49.324;8.694;2024-02-21T08:00:44;3.42;;;2.03;;
38715;SDS011;24833;49.324;8.694;2024-02-21T08:03:11;1.90;;;1.50;;
38715;SDS011;24833;49.324;8.694;2024-02-21T08:05:38;2.15;;;1.65;;
38715;SDS011;24833;49.324;8.694;2024-02-21T08:08:05;2.25;;;1.65;;
38715;SDS011;24833;49.324;8.694;2024-02-21T08:10:34;4.13;;;1.98;;
38715;SDS011;24833;49.324;8.694;2024-02-21T08:13:02;3.15;;;1.70;;
38715;SDS011;24833;49.324;8.694;2024-02-21T08:15:29;2.78;;;1.80;;
38715;SDS011;24833;49.324;8.694;2024-02-21T08:17:56;3.08;;;1.73;;
38715;SDS011;24833;49.324;8.694;2024-02-21T08:20:27;4.45;;;2.40;;
38715;SDS011;24833;49.324;8.694;2024-02-21T08:22:54;2.17;;;1.98;;
38715;SDS011;24833;49.324;8.694;2024-02-21T08:25:21;2.22;;;1.75;;
38715;SDS011;24833;49.324;8.694;2024-02-21T08:27:48;3.22;;;2.00;;
38715;SDS011;24833;49.324;8.694;2024-02-21T08:30:17;2.60;;;1.92;;
38715;SDS011;24833;49.324;8.694;2024-02-21T08:32:44;3.30;;;2.13;;
38715;SDS011;24833;49.324;8.694;2024-02-21T08:35:12;2.08;;;1.67;;
38715;SDS011;24833;49.324;8.694;2024-02-21T08:37:39;3.10;;;1.85;;
38715;SDS011;24833;49.324;8.694;2024-02-21T08:40:06;4.18;;;2.28;;
38715;SDS011;24833;49.324;8.694;2024-02-21T08:42:36;3.75;;;2.15;;
38715;SDS011;24833;49.324;8.694;2024-02-21T08:45:05;3.08;;;1.70;;
38715;SDS011;24833;49.324;8.694;2024-02-21T08:47:32;5.65;;;1.95;;
38715;SDS011;24833;49.324;8.694;2024-02-21T08:49:59;2.78;;;2.00;;
38715;SDS011;24833;49.324;8.694;2024-02-21T08:52:43;4.00;;;1.98;;
38715;SDS011;24833;49.324;8.694;2024-02-21T08:55:10;2.97;;;2.08;;
38715;SDS011;24833;49.324;8.694;2024-02-21T08:57:37;4.22;;;2.05;;
38715;SDS011;24833;49.324;8.694;2024-02-21T09:00:04;4.75;;;1.90;;
38715;SDS011;24833;49.324;8.694;2024-02-21T09:02:41;4.40;;;1.98;;
38715;SDS011;24833;49.324;8.694;2024-02-21T09:05:11;2.80;;;2.13;;
38715;SDS011;24833;49.324;8.694;2024-02-21T09:07:38;4.90;;;2.33;;
38715;SDS011;24833;49.324;8.694;2024-02-21T09:10:06;4.28;;;2.60;;
38715;SDS011;24833;49.324;8.694;2024-02-21T09:12:33;4.82;;;2.75;;
38715;SDS011;24833;49.324;8.694;2024-02-21T09:15:01;3.65;;;2.25;;
38715;SDS011;24833;49.324;8.694;2024-02-21T09:17:28;3.03;;;2.35;;
38715;SDS011;24833;49.324;8.694;2024-02-21T09:19:56;2.53;;;2.08;;
38715;SDS011;24833;49.324;8.694;2024-02-21T09:22:26;4.25;;;2.42;;
38715;SDS011;24833;49.324;8.694;2024-02-21T09:24:53;4.55;;;2.30;;
38715;SDS011;24833;49.324;8.694;2024-02-21T09:27:20;4.70;;;2.28;;
38715;SDS011;24833;49.324;8.694;2024-02-21T09:29:48;4.68;;;2.25;;
38715;SDS011;24833;49.324;8.694;2024-02-21T09:32:16;3.42;;;2.00;;
38715;SDS011;24833;49.324;8.694;2024-02-21T09:34:44;4.40;;;2.15;;
38715;SDS011;24833;49.324;8.694;2024-02-21T09:37:11;3.33;;;1.90;;
38715;SDS011;24833;49.324;8.694;2024-02-21T09:39:38;3.22;;;2.00;;
38715;SDS011;24833;49.324;8.694;2024-02-21T09:42:06;4.05;;;2.40;;
38715;SDS011;24833;49.324;8.694;2024-02-21T09:44:37;4.20;;;2.28;;
38715;SDS011;24833;49.324;8.694;2024-02-21T09:47:24;3.70;;;1.95;;
38715;SDS011;24833;49.324;8.694;2024-02-21T09:50:06;2.88;;;1.98;;
38715;SDS011;24833;49.324;8.694;2024-02-21T09:52:34;5.57;;;2.22;;
38715;SDS011;24833;49.324;8.694;2024-02-21T09:55:03;4.00;;;2.03;;
38715;SDS011;24833;49.324;8.694;2024-02-21T09:57:32;2.72;;;1.75;;
38715;SDS011;24833;49.324;8.694;2024-02-21T09:59:59;3.92;;;2.20;;
38715;SDS011;24833;49.324;8.694;2024-02-21T10:02:39;3.63;;;1.75;;
38715;SDS011;24833;49.324;8.694;2024-02-21T10:05:06;3.10;;;1.80;;
38715;SDS011;24833;49.324;8.694;2024-02-21T10:07:34;2.17;;;1.75;;
38715;SDS011;24833;49.324;8.694;2024-02-21T10:10:02;3.13;;;1.55;;
38715;SDS011;24833;49.324;8.694;2024-02-21T10:12:30;3.55;;;1.90;;
38715;SDS011;24833;49.324;8.694;2024-02-21T10:15:00;3.30;;;1.77;;
38715;SDS011;24833;49.324;8.694;2024-02-21T10:17:32;2.67;;;1.88;;
38715;SDS011;24833;49.324;8.694;2024-02-21T10:20:09;4.90;;;1.95;;
38715;SDS011;24833;49.324;8.694;2024-02-21T10:22:37;2.63;;;1.55;;
38715;SDS011;24833;49.324;8.694;2024-02-21T10:25:07;3.15;;;1.50;;
38715;SDS011;24833;49.324;8.694;2024-02-21T10:27:39;2.88;;;1.60;;
38715;SDS011;24833;49.324;8.694;2024-02-21T10:30:08;6.32;;;1.67;;
38715;SDS011;24833;49.324;8.694;2024-02-21T10:32:50;2.63;;;1.48;;
38715;SDS011;24833;49.324;8.694;2024-02-21T10:37:56;3.85;;;1.30;;
38715;SDS011;24833;49.324;8.694;2024-02-21T10:40:28;2.97;;;1.50;;
38715;SDS011;24833;49.324;8.694;2024-02-21T10:43:00;1.42;;;1.23;;
38715;SDS011;24833;49.324;8.694;2024-02-21T10:45:29;3.47;;;1.63;;
38715;SDS011;24833;49.324;8.694;2024-02-21T10:50:47;1.80;;;1.52;;
38715;SDS011;24833;49.324;8.694;2024-02-21T10:59:04;3.90;;;1.40;;
38715;SDS011;24833;49.324;8.694;2024-02-21T11:01:32;2.53;;;1.55;;
38715;SDS011;24833;49.324;8.694;2024-02-21T11:04:02;3.63;;;1.95;;
38715;SDS011;24833;49.324;8.694;2024-02-21T11:06:32;4.75;;;2.88;;
38715;SDS011;24833;49.324;8.694;2024-02-21T11:09:07;2.83;;;1.63;;
38715;SDS011;24833;49.324;8.694;2024-02-21T11:11:40;3.22;;;1.35;;
38715;SDS011;24833;49.324;8.694;2024-02-21T11:14:10;2.25;;;1.30;;
38715;SDS011;24833;49.324;8.694;2024-02-21T11:16:44;2.60;;;1.52;;
38715;SDS011;24833;49.324;8.694;2024-02-21T11:19:19;3.35;;;1.48;;
38715;SDS011;24833;49.324;8.694;2024-02-21T11:21:55;3.53;;;1.58;;
38715;SDS011;24833;49.324;8.694;2024-02-21T11:24:33;5.25;;;2.55;;
38715;SDS011;24833;49.324;8.694;2024-02-21T11:27:18;3.45;;;1.70;;
38715;SDS011;24833;49.324;8.694;2024-02-21T11:29:47;3.22;;;1.30;;
38715;SDS011;24833;49.324;8.694;2024-02-21T11:32:20;5.00;;;1.50;;
38715;SDS011;24833;49.324;8.694;2024-02-21T11:34:58;2.25;;;1.50;;
38715;SDS011;24833;49.324;8.694;2024-02-21T11:37:33;2.33;;;1.25;;
38715;SDS011;24833;49.324;8.694;2024-02-21T11:40:06;2.28;;;0.98;;
38715;SDS011;24833;49.324;8.694;2024-02-21T11:42:37;2.95;;;1.30;;
38715;SDS011;24833;49.324;8.694;2024-02-21T11:45:04;1.55;;;1.05;;
38715;SDS011;24833;49.324;8.694;2024-02-21T11:47:33;2.90;;;1.23;;
38715;SDS011;24833;49.324;8.694;2024-02-21T11:50:00;3.83;;;1.30;;
38715;SDS011;24833;49.324;8.694;2024-02-21T11:52:28;1.50;;;1.15;;
38715;SDS011;24833;49.324;8.694;2024-02-21T11:54:55;1.73;;;1.38;;
38715;SDS011;24833;49.324;8.694;2024-02-21T11:57:31;1.77;;;1.30;;
38715;SDS011;24833;49.324;8.694;2024-02-21T11:59:58;1.30;;;0.90;;
38715;SDS011;24833;49.324;8.694;2024-02-21T12:02:30;3.90;;;1.23;;
38715;SDS011;24833;49.324;8.694;2024-02-21T12:04:57;3.33;;;1.23;;
38715;SDS011;24833;49.324;8.694;2024-02-21T12:07:25;1.45;;;1.00;;
38715;SDS011;24833;49.324;8.694;2024-02-21T12:09:52;2.20;;;1.20;;
38715;SDS011;24833;49.324;8.694;2024-02-21T12:12:19;1.98;;;1.33;;
38715;SDS011;24833;49.324;8.694;2024-02-21T12:14:53;2.15;;;1.10;;
38715;SDS011;24833;49.324;8.694;2024-02-21T12:17:27;1.95;;;1.10;;
38715;SDS011;24833;49.324;8.694;2024-02-21T12:19:54;2.25;;;1.05;;
38715;SDS011;24833;49.324;8.694;2024-02-21T12:22:21;1.67;;;1.13;;
38715;SDS011;24833;49.324;8.694;2024-02-21T12:24:48;3.28;;;1.15;;
38715;SDS011;24833;49.324;8.694;2024-02-21T12:27:15;1.45;;;0.90;;
38715;SDS011;24833;49.324;8.694;2024-02-21T12:29:42;1.55;;;1.20;;
38715;SDS011;24833;49.324;8.694;2024-02-21T12:32:09;1.40;;;0.82;;
38715;SDS011;24833;49.324;8.694;2024-02-21T12:34:37;2.47;;;0.95;;
38715;SDS011;24833;49.324;8.694;2024-02-21T12:37:19;1.25;;;0.90;;
38715;SDS011;24833;49.324;8.694;2024-02-21T12:39:48;2.13;;;1.05;;
38715;SDS011;24833;49.324;8.694;2024-02-21T12:42:15;2.65;;;1.02;;
38715;SDS011;24833;49.324;8.694;2024-02-21T12:44:43;1.25;;;0.82;;
38715;SDS011;24833;49.324;8.694;2024-02-21T12:47:10;2.20;;;1.13;;
38715;SDS011;24833;49.324;8.694;2024-02-21T12:49:38;2.33;;;0.80;;
38715;SDS011;24833;49.324;8.694;2024-02-21T12:52:10;2.83;;;1.38;;
38715;SDS011;24833;49.324;8.694;2024-02-21T12:54:37;1.70;;;0.70;;
38715;SDS011;24833;49.324;8.694;2024-02-21T12:57:05;3.03;;;1.42;;
38715;SDS011;24833;49.324;8.694;2024-02-21T12:59:32;2.58;;;1.10;;
38715;SDS011;24833;49.324;8.694;2024-02-21T13:01:59;3.13;;;0.93;;
38715;SDS011;24833;49.324;8.694;2024-02-21T13:04:26;1.52;;;0.85;;
38715;SDS011;24833;49.324;8.694;2024-02-21T13:06:54;2.33;;;0.98;;
38715;SDS011;24833;49.324;8.694;2024-02-21T13:09:22;2.72;;;1.20;;
38715;SDS011;24833;49.324;8.694;2024-02-21T13:11:49;2.50;;;0.93;;
38715;SDS011;24833;49.324;8.694;2024-02-21T13:14:17;1.85;;;0.93;;
38715;SDS011;24833;49.324;8.694;2024-02-21T13:16:45;1.15;;;0.73;;
38715;SDS011;24833;49.324;8.694;2024-02-21T13:19:12;3.38;;;1.10;;
38715;SDS011;24833;49.324;8.694;2024-02-21T13:21:43;2.15;;;0.95;;
38715;SDS011;24833;49.324;8.694;2024-02-21T13:24:10;2.22;;;0.88;;
38715;SDS011;24833;49.324;8.694;2024-02-21T13:26:37;1.90;;;1.20;;
38715;SDS011;24833;49.324;8.694;2024-02-21T13:29:04;3.45;;;1.15;;
38715;SDS011;24833;49.324;8.694;2024-02-21T13:31:32;2.45;;;1.15;;
38715;SDS011;24833;49.324;8.694;2024-02-21T13:33:59;1.88;;;0.88;;
38715;SDS011;24833;49.324;8.694;2024-02-21T13:36:26;2.53;;;1.00;;
38715;SDS011;24833;49.324;8.694;2024-02-21T13:38:53;1.08;;;0.70;;
38715;SDS011;24833;49.324;8.694;2024-02-21T13:41:20;1.67;;;0.98;;
38715;SDS011;24833;49.324;8.694;2024-02-21T13:43:49;2.83;;;0.90;;
38715;SDS011;24833;49.324;8.694;2024-02-21T13:46:16;2.33;;;0.88;;
38715;SDS011;24833;49.324;8.694;2024-02-21T13:48:43;0.52;;;0.52;;
38715;SDS011;24833;49.324;8.694;2024-02-21T13:51:10;2.22;;;0.93;;
38715;SDS011;24833;49.324;8.694;2024-02-21T13:53:38;5.05;;;1.10;;
38715;SDS011;24833;49.324;8.694;2024-02-21T13:56:05;1.83;;;1.33;;
38715;SDS011;24833;49.324;8.694;2024-02-21T13:58:32;1.60;;;1.02;;
38715;SDS011;24833;49.324;8.694;2024-02-21T14:00:59;1.55;;;0.90;;
38715;SDS011;24833;49.324;8.694;2024-02-21T14:03:27;1.80;;;0.90;;
38715;SDS011;24833;49.324;8.694;2024-02-21T14:05:54;2.00;;;0.90;;
38715;SDS011;24833;49.324;8.694;2024-02-21T14:08:21;1.05;;;0.85;;
38715;SDS011;24833;49.324;8.694;2024-02-21T14:10:50;3.08;;;1.35;;
38715;SDS011;24833;49.324;8.694;2024-02-21T14:13:17;1.60;;;0.88;;
38715;SDS011;24833;49.324;8.694;2024-02-21T14:15:45;1.63;;;0.63;;
38715;SDS011;24833;49.324;8.694;2024-02-21T14:18:16;0.63;;;0.63;;
38715;SDS011;24833;49.324;8.694;2024-02-21T14:20:43;1.27;;;0.63;;
38715;SDS011;24833;49.324;8.694;2024-02-21T14:23:10;1.13;;;1.02;;
38715;SDS011;24833;49.324;8.694;2024-02-21T14:25:39;1.80;;;1.10;;
38715;SDS011;24833;49.324;8.694;2024-02-21T14:28:08;2.42;;;1.23;;
38715;SDS011;24833;49.324;8.694;2024-02-21T14:30:46;2.47;;;1.25;;
38715;SDS011;24833;49.324;8.694;2024-02-21T14:33:14;1.95;;;1.25;;
38715;SDS011;24833;49.324;8.694;2024-02-21T14:35:41;1.83;;;0.90;;
38715;SDS011;24833;49.324;8.694;2024-02-21T14:38:08;1.25;;;0.90;;
38715;SDS011;24833;49.324;8.694;2024-02-21T14:40:36;1.48;;;0.70;;
38715;SDS011;24833;49.324;8.694;2024-02-21T14:43:03;1.98;;;0.93;;
38715;SDS011;24833;49.324;8.694;2024-02-21T14:45:33;1.45;;;1.00;;
38715;SDS011;24833;49.324;8.694;2024-02-21T14:48:06;1.10;;;0.68;;
38715;SDS011;24833;49.324;8.694;2024-02-21T14:50:34;2.83;;;0.88;;
38715;SDS011;24833;49.324;8.694;2024-02-21T14:53:01;1.58;;;0.77;;
38715;SDS011;24833;49.324;8.694;2024-02-21T14:55:28;1.15;;;0.68;;
38715;SDS011;24833;49.324;8.694;2024-02-21T14:57:55;1.75;;;0.70;;
38715;SDS011;24833;49.324;8.694;2024-02-21T15:00:22;3.65;;;0.88;;
38715;SDS011;24833;49.324;8.694;2024-02-21T15:02:56;1.45;;;0.80;;
38715;SDS011;24833;49.324;8.694;2024-02-21T15:05:23;0.95;;;0.70;;
38715;SDS011;24833;49.324;8.694;2024-02-21T15:07:51;1.15;;;0.75;;
38715;SDS011;24833;49.324;8.694;2024-02-21T15:10:18;3.97;;;1.20;;
38715;SDS011;24833;49.324;8.694;2024-02-21T15:12:46;2.22;;;1.08;;